Olah — J8Y3743 — position and weather

sailwx.info

Track history (hours):
 
Tides and Currents Weather Stations Pressure Air Temp Water Temp Dewpoint Dewpoint Depression Visibility Wind Speed Wind Dir Waves Ship Positions

Olah

Last reported at 2014-Jul-22 13:25 UTC. Time now 2014-Jul-23 01:19 UTC.
Position N 43°34' E 007°05'.

Length 47 m; draft 3.5 m.

Type: High speed craft. MMSI: 375275000.

Date/timePositionNaut miles runAvg speedWind from/ knotsBaromVisibWave heightAir tempDewpointWater temp
2014-Jul-22 13:25N 43°34' E 007°05'0 0.0
2014-Jul-20 12:33N 43°34' E 007°05'8 8.5
2014-Jul-20 11:33N 43°31' E 007°16'1715.8
2014-Jul-20 10:30N 43°28' E 007°39'1515.6
2014-Jul-20 09:33N 43°25' E 007°58'1515.0
2014-Jul-20 08:33N 43°20' E 008°18'1515.1
2014-Jul-20 07:33N 43°14' E 008°37'1515.1
2014-Jul-20 06:32N 43°08' E 008°56'1515.2
2014-Jul-20 05:33N 43°03' E 009°15'1614.2
2014-Jul-20 04:25N 42°55' E 009°34'1315.2
2014-Jul-20 03:33N 42°44' E 009°44'1515.1
2014-Jul-20 02:33N 42°31' E 009°54'1514.9
2014-Jul-20 01:33N 42°18' E 010°04'2215.0
2014-Jul-20 00:04N 42°05' E 010°30'2415.2
2014-Jul-19 22:29N 41°55' E 010°59'4515.0
2014-Jul-19 19:30N 41°36' E 011°53'1614.7
2014-Jul-19 18:26N 41°28' E 012°12'1314.8
2014-Jul-19 17:33N 41°23' E 012°27'1514.8
2014-Jul-19 16:33N 41°15' E 012°44'1514.8
2014-Jul-19 15:33N 41°08' E 013°01'1514.6
2014-Jul-19 14:33N 41°01' E 013°18'1514.6
2014-Jul-19 13:33N 40°54' E 013°35'1414.5
2014-Jul-19 12:33N 40°47' E 013°52'1414.1
2014-Jul-19 11:33N 40°44' E 014°10'1413.7
2014-Jul-19 10:33N 40°43' E 014°28'0 0.2
2014-Jul-19 09:27N 40°43' E 014°29'0 0.0
2014-Jul-19 07:19N 40°43' E 014°29'0 0.0
2014-Jul-19 05:27N 40°43' E 014°29'0 0.0
2014-Jul-19 04:19N 40°43' E 014°29'0 0.0
2014-Jul-19 03:32N 40°43' E 014°29'0 0.0
2014-Jul-19 02:29N 40°43' E 014°29'0 0.0
2014-Jul-19 01:30N 40°43' E 014°29'0 0.0
2014-Jul-19 00:30N 40°43' E 014°29'0 0.0
2014-Jul-18 23:21N 40°43' E 014°29'0 0.0
2014-Jul-18 22:19N 40°43' E 014°29'0 0.0
2014-Jul-18 21:14N 40°43' E 014°29'0 0.0
2014-Jul-18 20:31N 40°43' E 014°29'0 0.0
2014-Jul-18 18:12N 40°43' E 014°29'0 0.0
2014-Jul-18 17:32N 40°43' E 014°29'0 0.0
2014-Jul-18 16:11N 40°43' E 014°29'0 0.0
2014-Jul-18 15:29N 40°43' E 014°29'0 0.0
2014-Jul-18 14:05N 40°43' E 014°29'0 0.0
2014-Jul-18 13:19N 40°43' E 014°29'0 0.0
2014-Jul-18 12:04N 40°43' E 014°29'0 0.0
2014-Jul-18 11:23N 40°43' E 014°29'0 0.0
2014-Jul-18 10:31N 40°43' E 014°29'1 1.5
2014-Jul-18 09:33N 40°43' E 014°27'1515.1
2014-Jul-18 08:33N 40°43' E 014°07'10 9.9
2014-Jul-18 07:31N 40°45' E 013°53'0 0.0
2014-Jul-18 06:32N 40°45' E 013°53'0 0.0
2014-Jul-18 05:32N 40°45' E 013°53'0 0.0
2014-Jul-18 04:32N 40°45' E 013°53'0 0.0
2014-Jul-18 03:32N 40°45' E 013°53'0 0.0
2014-Jul-18 02:30N 40°45' E 013°53'0 0.0
2014-Jul-18 01:28N 40°45' E 013°53'0 0.0
2014-Jul-18 00:32N 40°45' E 013°53'0 0.0
2014-Jul-17 23:32N 40°45' E 013°53'0 0.0
2014-Jul-17 22:33N 40°45' E 013°53'0 0.0
2014-Jul-17 21:33N 40°45' E 013°53'0 0.0
2014-Jul-17 20:30N 40°45' E 013°53'0 0.0
2014-Jul-17 19:33N 40°45' E 013°53'0 0.0
2014-Jul-17 18:33N 40°45' E 013°53'0 0.0
2014-Jul-17 17:33N 40°45' E 013°53'0 0.0
2014-Jul-17 16:28N 40°45' E 013°53'0 0.0
2014-Jul-17 15:33N 40°45' E 013°53'5 4.7
2014-Jul-17 14:34N 40°42' E 013°57'2 2.2
2014-Jul-17 13:34N 40°42' E 013°54'0 0.0
2014-Jul-17 12:30N 40°42' E 013°54'0 0.0
2014-Jul-17 11:29N 40°42' E 013°54'0 0.0
2014-Jul-17 10:34N 40°42' E 013°54'0 0.0
2014-Jul-17 09:33N 40°42' E 013°54'0 0.0
2014-Jul-17 08:32N 40°42' E 013°54'0 0.0
2014-Jul-17 07:33N 40°42' E 013°54'0 0.0
2014-Jul-17 06:34N 40°42' E 013°54'0 0.0
2014-Jul-17 05:33N 40°42' E 013°54'0 0.0
2014-Jul-17 04:33N 40°42' E 013°54'0 0.0
2014-Jul-17 03:33N 40°42' E 013°54'0 0.0
2014-Jul-17 02:30N 40°42' E 013°54'0 0.0
2014-Jul-17 01:31N 40°42' E 013°54'0 0.0
2014-Jul-17 00:33N 40°42' E 013°54'0 0.0
2014-Jul-16 23:31N 40°42' E 013°54'0 0.0
2014-Jul-16 22:33N 40°42' E 013°54'0 0.0
2014-Jul-16 21:34N 40°42' E 013°54'0 0.0
2014-Jul-16 20:33N 40°42' E 013°54'0 0.0
2014-Jul-16 19:33N 40°42' E 013°54'0 0.0
2014-Jul-16 18:33N 40°42' E 013°54'1111.2
2014-Jul-16 17:34N 40°40' E 014°09'1110.3
2014-Jul-16 16:28N 40°38' E 014°24'0 0.0
2014-Jul-16 15:26N 40°38' E 014°24'0 0.0
2014-Jul-16 14:29N 40°38' E 014°23'0 0.0
2014-Jul-16 13:30N 40°38' E 014°23'0 0.0
2014-Jul-16 12:33N 40°38' E 014°24'0 0.0
2014-Jul-16 11:30N 40°38' E 014°24'0 0.0
2014-Jul-16 10:33N 40°38' E 014°24'6 5.6
2014-Jul-16 09:34N 40°34' E 014°19'8 0.3
2014-Jul-15 10:20N 40°36' E 014°29'1113.9
2014-Jul-15 09:33N 40°34' E 014°15'1 0.6
2014-Jul-15 08:33N 40°33' E 014°15'0 0.0
2014-Jul-15 07:31N 40°33' E 014°15'0 0.0
2014-Jul-15 06:32N 40°33' E 014°15'0 0.0
2014-Jul-15 05:33N 40°33' E 014°15'0 0.0
2014-Jul-15 04:33N 40°33' E 014°15'0 0.0
2014-Jul-15 03:33N 40°33' E 014°15'0 0.0
2014-Jul-15 02:33N 40°33' E 014°15'0 0.0
2014-Jul-15 01:33N 40°33' E 014°15'0 0.0
2014-Jul-15 00:32N 40°33' E 014°15'0 0.0
2014-Jul-14 23:33N 40°33' E 014°15'0 0.0
2014-Jul-14 22:32N 40°33' E 014°15'0 0.0
2014-Jul-14 21:32N 40°33' E 014°15'0 0.0
2014-Jul-14 20:30N 40°33' E 014°15'0 0.0
2014-Jul-14 19:33N 40°33' E 014°15'0 0.0
2014-Jul-14 18:33N 40°33' E 014°15'0 0.0
2014-Jul-14 17:33N 40°33' E 014°15'0 0.0
2014-Jul-14 16:33N 40°33' E 014°15'0 0.0
2014-Jul-14 15:33N 40°33' E 014°15'0 0.0
2014-Jul-14 14:33N 40°33' E 014°15'0 0.0
2014-Jul-14 13:33N 40°33' E 014°15'0 0.0
2014-Jul-14 12:33N 40°33' E 014°15'0 0.0
2014-Jul-14 11:33N 40°33' E 014°15'0 0.0
2014-Jul-14 10:33N 40°33' E 014°15'0 0.0
2014-Jul-14 09:33N 40°33' E 014°15'0 0.0
2014-Jul-14 06:23N 40°33' E 014°15'0 0.0
2014-Jul-14 05:31N 40°33' E 014°15'0 0.0
2014-Jul-14 00:17N 40°33' E 014°15'0 0.0
2014-Jul-13 20:31N 40°33' E 014°15'0 0.0
2014-Jul-13 19:33N 40°33' E 014°15'0 0.0
2014-Jul-13 18:33N 40°33' E 014°15'0 0.0
2014-Jul-13 15:33N 40°33' E 014°15'0 0.0
2014-Jul-13 14:33N 40°33' E 014°15'0 0.0
2014-Jul-13 13:28N 40°33' E 014°15'1 0.6
2014-Jul-13 12:33N 40°34' E 014°14'0 0.1
2014-Jul-13 11:33N 40°34' E 014°14'0 0.2
2014-Jul-13 10:33N 40°34' E 014°14'0 0.0
2014-Jul-13 09:33N 40°34' E 014°14'8 7.4
2014-Jul-13 08:32N 40°41' E 014°14'  
Track history (hours):
 
Tides and Currents Weather Stations Pressure Air Temp Water Temp Dewpoint Dewpoint Depression Visibility Wind Speed Wind Dir Waves Ship Positions

Olah

Last reported at 2014-Jul-22 13:25 UTC. Time now 2014-Jul-23 01:19 UTC.
Position N 43°34' E 007°05'.

Length 47 m; draft 3.5 m.

Type: High speed craft. MMSI: 375275000.

Date/timePositionNaut miles runAvg speedWind from/ knotsBaromVisibWave heightAir tempDewpointWater temp
2014-Jul-22 13:25N 43°34' E 007°05'0 0.0
2014-Jul-20 12:33N 43°34' E 007°05'8 8.5
2014-Jul-20 11:33N 43°31' E 007°16'1715.8
2014-Jul-20 10:30N 43°28' E 007°39'1515.6
2014-Jul-20 09:33N 43°25' E 007°58'1515.0
2014-Jul-20 08:33N 43°20' E 008°18'1515.1
2014-Jul-20 07:33N 43°14' E 008°37'1515.1
2014-Jul-20 06:32N 43°08' E 008°56'1515.2
2014-Jul-20 05:33N 43°03' E 009°15'1614.2
2014-Jul-20 04:25N 42°55' E 009°34'1315.2
2014-Jul-20 03:33N 42°44' E 009°44'1515.1
2014-Jul-20 02:33N 42°31' E 009°54'1514.9
2014-Jul-20 01:33N 42°18' E 010°04'2215.0
2014-Jul-20 00:04N 42°05' E 010°30'2415.2
2014-Jul-19 22:29N 41°55' E 010°59'4515.0
2014-Jul-19 19:30N 41°36' E 011°53'1614.7
2014-Jul-19 18:26N 41°28' E 012°12'1314.8
2014-Jul-19 17:33N 41°23' E 012°27'1514.8
2014-Jul-19 16:33N 41°15' E 012°44'1514.8
2014-Jul-19 15:33N 41°08' E 013°01'1514.6
2014-Jul-19 14:33N 41°01' E 013°18'1514.6
2014-Jul-19 13:33N 40°54' E 013°35'1414.5
2014-Jul-19 12:33N 40°47' E 013°52'1414.1
2014-Jul-19 11:33N 40°44' E 014°10'1413.7
2014-Jul-19 10:33N 40°43' E 014°28'0 0.2
2014-Jul-19 09:27N 40°43' E 014°29'0 0.0
2014-Jul-19 07:19N 40°43' E 014°29'0 0.0
2014-Jul-19 05:27N 40°43' E 014°29'0 0.0
2014-Jul-19 04:19N 40°43' E 014°29'0 0.0
2014-Jul-19 03:32N 40°43' E 014°29'0 0.0
2014-Jul-19 02:29N 40°43' E 014°29'0 0.0
2014-Jul-19 01:30N 40°43' E 014°29'0 0.0
2014-Jul-19 00:30N 40°43' E 014°29'0 0.0
2014-Jul-18 23:21N 40°43' E 014°29'0 0.0
2014-Jul-18 22:19N 40°43' E 014°29'0 0.0
2014-Jul-18 21:14N 40°43' E 014°29'0 0.0
2014-Jul-18 20:31N 40°43' E 014°29'0 0.0
2014-Jul-18 18:12N 40°43' E 014°29'0 0.0
2014-Jul-18 17:32N 40°43' E 014°29'0 0.0
2014-Jul-18 16:11N 40°43' E 014°29'0 0.0
2014-Jul-18 15:29N 40°43' E 014°29'0 0.0
2014-Jul-18 14:05N 40°43' E 014°29'0 0.0
2014-Jul-18 13:19N 40°43' E 014°29'0 0.0
2014-Jul-18 12:04N 40°43' E 014°29'0 0.0
2014-Jul-18 11:23N 40°43' E 014°29'0 0.0
2014-Jul-18 10:31N 40°43' E 014°29'1 1.5
2014-Jul-18 09:33N 40°43' E 014°27'1515.1
2014-Jul-18 08:33N 40°43' E 014°07'10 9.9
2014-Jul-18 07:31N 40°45' E 013°53'0 0.0
2014-Jul-18 06:32N 40°45' E 013°53'0 0.0
2014-Jul-18 05:32N 40°45' E 013°53'0 0.0
2014-Jul-18 04:32N 40°45' E 013°53'0 0.0
2014-Jul-18 03:32N 40°45' E 013°53'0 0.0
2014-Jul-18 02:30N 40°45' E 013°53'0 0.0
2014-Jul-18 01:28N 40°45' E 013°53'0 0.0
2014-Jul-18 00:32N 40°45' E 013°53'0 0.0
2014-Jul-17 23:32N 40°45' E 013°53'0 0.0
2014-Jul-17 22:33N 40°45' E 013°53'0 0.0
2014-Jul-17 21:33N 40°45' E 013°53'0 0.0
2014-Jul-17 20:30N 40°45' E 013°53'0 0.0
2014-Jul-17 19:33N 40°45' E 013°53'0 0.0
2014-Jul-17 18:33N 40°45' E 013°53'0 0.0
2014-Jul-17 17:33N 40°45' E 013°53'0 0.0
2014-Jul-17 16:28N 40°45' E 013°53'0 0.0
2014-Jul-17 15:33N 40°45' E 013°53'5 4.7
2014-Jul-17 14:34N 40°42' E 013°57'2 2.2
2014-Jul-17 13:34N 40°42' E 013°54'0 0.0
2014-Jul-17 12:30N 40°42' E 013°54'0 0.0
2014-Jul-17 11:29N 40°42' E 013°54'0 0.0
2014-Jul-17 10:34N 40°42' E 013°54'0 0.0
2014-Jul-17 09:33N 40°42' E 013°54'0 0.0
2014-Jul-17 08:32N 40°42' E 013°54'0 0.0
2014-Jul-17 07:33N 40°42' E 013°54'0 0.0
2014-Jul-17 06:34N 40°42' E 013°54'0 0.0
2014-Jul-17 05:33N 40°42' E 013°54'0 0.0
2014-Jul-17 04:33N 40°42' E 013°54'0 0.0
2014-Jul-17 03:33N 40°42' E 013°54'0 0.0
2014-Jul-17 02:30N 40°42' E 013°54'0 0.0
2014-Jul-17 01:31N 40°42' E 013°54'0 0.0
2014-Jul-17 00:33N 40°42' E 013°54'0 0.0
2014-Jul-16 23:31N 40°42' E 013°54'0 0.0
2014-Jul-16 22:33N 40°42' E 013°54'0 0.0
2014-Jul-16 21:34N 40°42' E 013°54'0 0.0
2014-Jul-16 20:33N 40°42' E 013°54'0 0.0
2014-Jul-16 19:33N 40°42' E 013°54'0 0.0
2014-Jul-16 18:33N 40°42' E 013°54'1111.2
2014-Jul-16 17:34N 40°40' E 014°09'1110.3
2014-Jul-16 16:28N 40°38' E 014°24'0 0.0
2014-Jul-16 15:26N 40°38' E 014°24'0 0.0
2014-Jul-16 14:29N 40°38' E 014°23'0 0.0
2014-Jul-16 13:30N 40°38' E 014°23'0 0.0
2014-Jul-16 12:33N 40°38' E 014°24'0 0.0
2014-Jul-16 11:30N 40°38' E 014°24'0 0.0
2014-Jul-16 10:33N 40°38' E 014°24'6 5.6
2014-Jul-16 09:34N 40°34' E 014°19'8 0.3
2014-Jul-15 10:20N 40°36' E 014°29'1113.9
2014-Jul-15 09:33N 40°34' E 014°15'1 0.6
2014-Jul-15 08:33N 40°33' E 014°15'0 0.0
2014-Jul-15 07:31N 40°33' E 014°15'0 0.0
2014-Jul-15 06:32N 40°33' E 014°15'0 0.0
2014-Jul-15 05:33N 40°33' E 014°15'0 0.0
2014-Jul-15 04:33N 40°33' E 014°15'0 0.0
2014-Jul-15 03:33N 40°33' E 014°15'0 0.0
2014-Jul-15 02:33N 40°33' E 014°15'0 0.0
2014-Jul-15 01:33N 40°33' E 014°15'0 0.0
2014-Jul-15 00:32N 40°33' E 014°15'0 0.0
2014-Jul-14 23:33N 40°33' E 014°15'0 0.0
2014-Jul-14 22:32N 40°33' E 014°15'0 0.0
2014-Jul-14 21:32N 40°33' E 014°15'0 0.0
2014-Jul-14 20:30N 40°33' E 014°15'0 0.0
2014-Jul-14 19:33N 40°33' E 014°15'0 0.0
2014-Jul-14 18:33N 40°33' E 014°15'0 0.0
2014-Jul-14 17:33N 40°33' E 014°15'0 0.0
2014-Jul-14 16:33N 40°33' E 014°15'0 0.0
2014-Jul-14 15:33N 40°33' E 014°15'0 0.0
2014-Jul-14 14:33N 40°33' E 014°15'0 0.0
2014-Jul-14 13:33N 40°33' E 014°15'0 0.0
2014-Jul-14 12:33N 40°33' E 014°15'0 0.0
2014-Jul-14 11:33N 40°33' E 014°15'0 0.0
2014-Jul-14 10:33N 40°33' E 014°15'0 0.0
2014-Jul-14 09:33N 40°33' E 014°15'0 0.0
2014-Jul-14 06:23N 40°33' E 014°15'0 0.0
2014-Jul-14 05:31N 40°33' E 014°15'0 0.0
2014-Jul-14 00:17N 40°33' E 014°15'0 0.0
2014-Jul-13 20:31N 40°33' E 014°15'0 0.0
2014-Jul-13 19:33N 40°33' E 014°15'0 0.0
2014-Jul-13 18:33N 40°33' E 014°15'0 0.0
2014-Jul-13 15:33N 40°33' E 014°15'0 0.0
2014-Jul-13 14:33N 40°33' E 014°15'0 0.0
2014-Jul-13 13:28N 40°33' E 014°15'1 0.6
2014-Jul-13 12:33N 40°34' E 014°14'0 0.1
2014-Jul-13 11:33N 40°34' E 014°14'0 0.2
2014-Jul-13 10:33N 40°34' E 014°14'0 0.0
2014-Jul-13 09:33N 40°34' E 014°14'8 7.4
2014-Jul-13 08:32N 40°41' E 014°14'  

Dump ship's entire track history